Time;durP1;ratioP1;P1;durP2;ratioP2;P2;SDS_P1;SDS_P2;PMS_P1;PMS_P2;Temp;Humidity;BMP_temperature;BMP_pressure;BME280_temperature;BME280_humidity;BME280_pressure;Samples;Min_cycle;Max_cycle;Signal;HPM_P1;HPM_P2
2022/10/15 00:00:39;;;;;;;18.83;15.83;;;15.30;99.90;;;;;;5114064;28;20204;-81
2022/10/15 00:03:06;;;;;;;19.03;16.27;;;15.20;99.90;;;;;;5114291;28;20215;-81
2022/10/15 00:05:36;;;;;;;17.80;16.00;;;15.20;99.90;;;;;;5113876;28;20205;-79
2022/10/15 00:08:03;;;;;;;21.87;17.43;;;15.20;99.90;;;;;;5113612;28;20258;-81
2022/10/15 00:10:31;;;;;;;19.33;17.33;;;15.10;99.90;;;;;;5114509;28;20194;-81
2022/10/15 00:12:58;;;;;;;19.77;16.83;;;15.20;99.90;;;;;;5114191;28;20211;-81
2022/10/15 00:15:25;;;;;;;21.27;17.30;;;15.10;99.90;;;;;;5114097;28;20219;-81
2022/10/15 00:17:52;;;;;;;21.30;18.20;;;15.20;99.90;;;;;;5113787;28;20569;-80
2022/10/15 00:20:19;;;;;;;24.88;22.45;;;15.20;99.90;;;;;;5113271;28;20432;-81
2022/10/15 00:22:51;;;;;;;21.93;19.67;;;15.20;99.90;;;;;;5113513;28;20210;-81
2022/10/15 00:25:18;;;;;;;21.67;18.87;;;15.20;99.90;;;;;;5113590;28;20207;-82
2022/10/15 00:27:47;;;;;;;21.10;18.73;;;15.20;99.90;;;;;;5113913;28;20227;-81
2022/10/15 00:30:14;;;;;;;21.97;18.37;;;15.20;99.90;;;;;;5113908;28;20192;-81
2022/10/15 00:32:41;;;;;;;20.57;18.37;;;15.30;99.90;;;;;;5113710;28;20202;-81
2022/10/15 00:35:08;;;;;;;21.03;18.93;;;15.30;99.90;;;;;;5113446;28;20215;-81
2022/10/15 00:37:35;;;;;;;20.87;18.10;;;15.40;99.90;;;;;;5113656;28;20206;-81
2022/10/15 00:40:02;;;;;;;24.03;20.07;;;15.40;99.90;;;;;;5113566;28;20212;-80
2022/10/15 00:42:28;;;;;;;21.00;18.80;;;15.30;99.90;;;;;;5113805;28;20203;-80
2022/10/15 00:44:59;;;;;;;24.37;18.23;;;15.30;99.90;;;;;;5113111;28;20571;-81
2022/10/15 00:47:32;;;;;;;23.20;18.83;;;15.40;99.90;;;;;;5113754;28;20294;-81
2022/10/15 00:50:05;;;;;;;23.57;18.67;;;15.30;99.90;;;;;;5113474;28;20189;-81
2022/10/15 00:52:38;;;;;;;24.03;20.07;;;15.30;99.90;;;;;;5113513;28;20207;-81
2022/10/15 00:55:09;;;;;;;24.30;19.00;;;15.40;99.90;;;;;;5113272;28;20555;-80
2022/10/15 00:57:36;;;;;;;22.53;18.63;;;15.30;99.90;;;;;;5113599;28;20207;-81
2022/10/15 01:00:08;;;;;;;22.63;18.27;;;15.30;99.90;;;;;;5113384;28;20223;-80
2022/10/15 01:02:35;;;;;;;24.23;20.40;;;15.30;99.90;;;;;;5113543;28;20262;-80
2022/10/15 01:05:03;;;;;;;21.73;19.23;;;15.30;99.90;;;;;;5113104;28;20560;-80
2022/10/15 01:07:30;;;;;;;23.00;19.07;;;15.20;99.90;;;;;;5113369;28;20216;-81
2022/10/15 01:09:57;;;;;;;21.67;19.30;;;15.30;99.90;;;;;;5113214;28;20205;-80
2022/10/15 01:12:39;;;;;;;22.87;19.00;;;15.30;99.90;;;;;;5113537;28;20203;-80
2022/10/15 01:15:15;;;;;;;20.70;18.13;;;15.20;99.90;;;;;;5113447;28;20192;-81
2022/10/15 01:17:47;;;;;;;23.70;18.47;;;15.10;99.90;;;;;;5114112;28;20208;-82
2022/10/15 01:20:43;;;;;;;25.40;22.90;;;15.10;99.90;;;;;;5112400;28;20789;-83
2022/10/15 01:23:42;;;;;;;20.93;18.73;;;15.00;99.90;;;;;;5113539;28;20568;-83
2022/10/15 01:26:43;;;;;;;21.33;18.77;;;15.00;99.90;;;;;;5113646;28;20208;-83
2022/10/15 01:29:26;;;;;;;24.80;19.10;;;15.00;99.90;;;;;;5113151;28;20230;-82
2022/10/15 01:32:07;;;;;;;24.57;19.73;;;14.90;99.90;;;;;;5113585;28;20195;-82
2022/10/15 01:34:41;;;;;;;21.53;18.23;;;15.00;99.90;;;;;;5112649;28;20202;-83
2022/10/15 01:37:13;;;;;;;23.50;18.97;;;14.90;99.90;;;;;;5114114;28;20187;-83
2022/10/15 01:39:42;;;;;;;21.07;18.87;;;14.80;99.90;;;;;;5117251;28;20191;-82
2022/10/15 01:42:16;;;;;;;21.10;18.20;;;14.70;99.90;;;;;;5117493;28;20215;-83
2022/10/15 01:44:50;;;;;;;21.57;18.73;;;14.70;99.90;;;;;;5117249;28;20240;-82
2022/10/15 01:47:23;;;;;;;21.13;18.83;;;14.70;99.90;;;;;;5116845;28;20220;-82
2022/10/15 01:49:53;;;;;;;25.75;22.98;;;14.70;99.90;;;;;;5115940;28;20441;-83
2022/10/15 01:52:23;;;;;;;23.90;19.73;;;14.60;99.90;;;;;;5117051;28;20208;-83
2022/10/15 01:54:52;;;;;;;20.77;18.47;;;14.50;99.90;;;;;;5116601;28;20190;-81
2022/10/15 01:57:21;;;;;;;23.53;19.43;;;14.60;99.90;;;;;;5115355;28;20206;-82
2022/10/15 01:59:48;;;;;;;23.23;18.87;;;14.70;99.90;;;;;;5116477;28;20254;-83
2022/10/15 02:02:14;;;;;;;23.53;18.90;;;14.70;99.90;;;;;;5115126;28;20213;-83
2022/10/15 02:04:43;;;;;;;22.00;19.13;;;14.80;99.90;;;;;;5115377;28;20201;-83
2022/10/15 02:07:15;;;;;;;22.67;19.83;;;14.70;99.90;;;;;;5115384;28;20652;-82
2022/10/15 02:09:50;;;;;;;22.90;19.50;;;14.50;99.90;;;;;;5116535;28;20230;-82
2022/10/15 02:12:34;;;;;;;21.93;19.27;;;14.60;99.90;;;;;;5116598;28;20215;-84
2022/10/15 02:15:10;;;;;;;26.93;19.73;;;14.60;99.90;;;;;;5116295;28;20212;-83
2022/10/15 02:17:42;;;;;;;25.83;21.43;;;14.50;99.90;;;;;;5116364;28;20200;-83
2022/10/15 02:20:22;;;;;;;24.87;19.27;;;14.50;99.90;;;;;;5116352;28;20190;-83
2022/10/15 02:22:55;;;;;;;25.47;19.87;;;14.40;99.90;;;;;;5116357;28;20200;-83
2022/10/15 02:25:24;;;;;;;26.13;21.40;;;14.40;99.90;;;;;;5116198;28;20200;-83
2022/10/15 02:27:54;;;;;;;26.83;21.00;;;14.40;99.90;;;;;;5116229;28;20212;-82
2022/10/15 02:30:21;;;;;;;27.30;21.97;;;14.40;99.90;;;;;;5116201;28;20200;-82
2022/10/15 02:32:54;;;;;;;27.07;21.50;;;14.40;99.90;;;;;;5115682;28;20185;-82
2022/10/15 02:35:24;;;;;;;27.83;22.13;;;14.50;99.90;;;;;;5115965;28;20204;-83
2022/10/15 02:38:01;;;;;;;29.37;22.80;;;14.50;99.90;;;;;;5115976;28;20556;-83
2022/10/15 02:40:32;;;;;;;30.87;23.70;;;14.40;99.90;;;;;;5116075;28;20755;-83
2022/10/15 02:43:00;;;;;;;35.67;24.60;;;14.30;99.90;;;;;;5115761;28;20667;-84
2022/10/15 02:45:26;;;;;;;28.10;22.80;;;14.40;99.90;;;;;;5116283;28;20195;-83
2022/10/15 02:47:53;;;;;;;33.07;24.63;;;14.30;99.90;;;;;;5114588;28;20216;-83
2022/10/15 02:50:24;;;;;;;29.77;23.87;;;14.30;99.90;;;;;;5114759;28;20189;-83
2022/10/15 02:52:50;;;;;;;33.23;26.10;;;14.40;99.90;;;;;;5115337;28;20201;-82
2022/10/15 02:55:17;;;;;;;35.77;26.23;;;14.30;99.90;;;;;;5115981;28;20217;-83
2022/10/15 02:57:44;;;;;;;41.50;26.53;;;14.40;99.90;;;;;;5115839;28;20204;-82
2022/10/15 03:00:12;;;;;;;39.53;26.80;;;14.50;99.90;;;;;;5115270;28;20217;-83
2022/10/15 03:02:39;;;;;;;38.07;27.47;;;14.50;99.90;;;;;;5115159;28;20643;-83
2022/10/15 03:05:06;;;;;;;35.80;24.60;;;14.50;99.90;;;;;;5115479;28;20223;-82
2022/10/15 03:07:34;;;;;;;34.50;25.27;;;14.60;99.90;;;;;;5115699;28;20288;-83
2022/10/15 03:10:01;;;;;;;32.37;25.23;;;14.60;99.90;;;;;;5115293;28;20220;-83
2022/10/15 03:12:28;;;;;;;33.93;24.70;;;14.60;99.90;;;;;;5115519;28;20192;-83
2022/10/15 03:14:55;;;;;;;33.27;23.50;;;14.60;99.90;;;;;;5115385;28;20200;-83
2022/10/15 03:17:22;;;;;;;29.80;23.13;;;14.50;99.90;;;;;;5114631;28;20211;-83
2022/10/15 03:19:48;;;;;;;30.87;23.73;;;14.60;99.90;;;;;;5115200;28;20568;-82
2022/10/15 03:22:15;;;;;;;30.27;23.90;;;14.60;99.90;;;;;;5115219;28;20211;-82
2022/10/15 03:24:43;;;;;;;30.93;23.33;;;14.60;99.90;;;;;;5115138;28;20202;-81
2022/10/15 03:27:10;;;;;;;29.27;23.23;;;14.70;99.90;;;;;;5114912;28;20201;-83
2022/10/15 03:29:37;;;;;;;30.30;23.23;;;14.70;99.90;;;;;;5114864;28;20224;-83
2022/10/15 03:32:04;;;;;;;29.10;23.07;;;14.70;99.90;;;;;;5114726;28;20270;-82
2022/10/15 03:34:31;;;;;;;27.10;22.23;;;14.50;99.90;;;;;;5115088;28;20204;-83
2022/10/15 03:36:57;;;;;;;25.33;20.90;;;14.40;99.90;;;;;;5114680;28;20208;-83
2022/10/15 03:39:24;;;;;;;24.73;20.50;;;14.50;99.90;;;;;;5114573;28;20201;-83
2022/10/15 03:41:54;;;;;;;22.73;19.63;;;14.40;99.90;;;;;;5114881;28;20204;-83
2022/10/15 03:44:21;;;;;;;25.30;19.93;;;14.40;99.90;;;;;;5114805;28;20189;-83
2022/10/15 03:46:48;;;;;;;23.17;19.43;;;14.40;99.90;;;;;;5114916;28;20190;-82
2022/10/15 03:49:15;;;;;;;27.23;23.08;;;14.50;99.90;;;;;;5113414;28;20441;-82
2022/10/15 03:51:43;;;;;;;22.77;18.70;;;14.60;99.90;;;;;;5114896;28;20201;-82
2022/10/15 03:54:10;;;;;;;21.33;18.17;;;14.60;99.90;;;;;;5114374;28;20197;-82
2022/10/15 03:56:37;;;;;;;22.27;17.63;;;14.70;99.90;;;;;;5114521;28;20220;-83
2022/10/15 03:59:05;;;;;;;19.77;17.10;;;14.50;99.90;;;;;;5114123;28;20221;-83
2022/10/15 04:01:33;;;;;;;18.53;16.17;;;14.60;99.90;;;;;;5113861;28;20189;-82
2022/10/15 04:04:00;;;;;;;18.40;16.40;;;14.60;99.90;;;;;;5114130;28;20560;-82
2022/10/15 04:06:27;;;;;;;26.27;16.63;;;14.70;99.90;;;;;;5114307;28;20208;-83
2022/10/15 04:08:55;;;;;;;18.27;16.37;;;14.80;99.90;;;;;;5114646;28;20217;-84
2022/10/15 04:11:22;;;;;;;16.97;15.17;;;14.80;99.90;;;;;;5114369;28;20201;-83
2022/10/15 04:13:49;;;;;;;17.80;15.90;;;14.80;99.90;;;;;;5113717;28;20206;-82
2022/10/15 04:16:18;;;;;;;18.57;16.27;;;14.70;99.90;;;;;;5114429;28;20274;-83
2022/10/15 04:18:46;;;;;;;19.30;16.60;;;14.80;99.90;;;;;;5113998;28;20438;-83
2022/10/15 04:21:12;;;;;;;17.50;15.70;;;14.70;99.90;;;;;;5114304;28;20212;-83
2022/10/15 04:23:39;;;;;;;18.37;15.93;;;14.60;99.90;;;;;;5114195;28;20197;-83
2022/10/15 04:26:06;;;;;;;17.97;15.07;;;14.60;99.90;;;;;;5114123;28;20189;-83
2022/10/15 04:28:33;;;;;;;19.73;16.07;;;14.60;99.90;;;;;;5113697;28;20207;-83
2022/10/15 04:31:01;;;;;;;19.57;16.67;;;14.50;99.90;;;;;;5114055;28;20213;-83
2022/10/15 04:33:29;;;;;;;22.07;17.13;;;14.60;99.90;;;;;;5114292;28;20196;-83
2022/10/15 04:36:05;;;;;;;17.10;15.23;;;14.50;99.90;;;;;;5114223;28;20211;-82
2022/10/15 04:38:32;;;;;;;16.67;14.87;;;14.50;99.90;;;;;;5113758;28;20202;-82
2022/10/15 04:41:01;;;;;;;19.50;16.93;;;14.60;99.90;;;;;;5113896;28;20198;-82
2022/10/15 04:43:29;;;;;;;21.80;17.30;;;14.50;99.90;;;;;;5113627;28;20196;-82
2022/10/15 04:45:57;;;;;;;21.83;16.70;;;14.60;99.90;;;;;;5113947;28;20194;-83
2022/10/15 04:48:24;;;;;;;19.35;17.08;;;14.60;99.90;;;;;;5113111;28;20427;-82
2022/10/15 04:50:52;;;;;;;20.17;16.80;;;14.60;99.90;;;;;;5114078;28;20275;-83
2022/10/15 04:53:19;;;;;;;19.27;15.60;;;14.70;99.90;;;;;;5113738;28;20206;-83
2022/10/15 04:55:46;;;;;;;17.10;15.27;;;14.70;99.90;;;;;;5113428;28;20672;-83
2022/10/15 04:58:13;;;;;;;18.03;14.73;;;14.60;99.90;;;;;;5113030;28;20217;-82
2022/10/15 05:00:40;;;;;;;18.40;16.03;;;14.70;99.90;;;;;;5112285;28;20193;-82
2022/10/15 05:03:07;;;;;;;20.60;16.40;;;14.70;99.90;;;;;;5112856;28;20229;-82
2022/10/15 05:05:34;;;;;;;15.47;13.37;;;14.80;99.90;;;;;;5111727;28;20204;-82
2022/10/15 05:08:03;;;;;;;19.50;14.67;;;14.50;99.90;;;;;;5112445;28;20201;-82
2022/10/15 05:10:30;;;;;;;16.47;14.77;;;14.40;99.90;;;;;;5113289;28;20232;-83
2022/10/15 05:12:57;;;;;;;17.87;15.33;;;14.50;99.90;;;;;;5117074;28;20203;-82
2022/10/15 05:15:26;;;;;;;17.23;15.20;;;14.60;99.90;;;;;;5117433;28;20201;-82
2022/10/15 05:17:53;;;;;;;20.53;14.87;;;14.60;99.90;;;;;;5117448;28;20240;-82
2022/10/15 05:20:20;;;;;;;19.97;15.87;;;14.70;99.90;;;;;;5117598;28;20254;-83
2022/10/15 05:22:47;;;;;;;17.63;13.83;;;14.70;99.90;;;;;;5117460;28;20569;-83
2022/10/15 05:25:15;;;;;;;16.63;14.37;;;14.70;99.90;;;;;;5117093;28;20202;-83
2022/10/15 05:27:42;;;;;;;18.27;14.33;;;14.70;99.90;;;;;;5117185;28;20206;-83
2022/10/15 05:30:10;;;;;;;15.97;13.53;;;14.70;99.90;;;;;;5117116;28;20241;-84
2022/10/15 05:32:36;;;;;;;18.07;14.00;;;14.70;99.90;;;;;;5117093;28;20211;-82
2022/10/15 05:35:04;;;;;;;19.40;13.17;;;14.70;99.90;;;;;;5116891;28;20213;-82
2022/10/15 05:37:30;;;;;;;17.83;13.53;;;14.60;99.90;;;;;;5117050;28;20205;-83
2022/10/15 05:39:57;;;;;;;14.77;12.40;;;14.60;99.90;;;;;;5117423;28;20200;-82
2022/10/15 05:42:25;;;;;;;17.73;14.93;;;14.70;99.90;;;;;;5116524;28;20202;-82
2022/10/15 05:44:52;;;;;;;14.70;12.93;;;14.60;99.90;;;;;;5117164;28;20209;-82
2022/10/15 05:47:19;;;;;;;16.50;13.07;;;14.70;99.90;;;;;;5117053;28;20213;-82
2022/10/15 05:49:46;;;;;;;15.10;12.73;;;14.70;99.90;;;;;;5116864;28;20230;-83
2022/10/15 05:52:12;;;;;;;17.90;14.00;;;14.60;99.90;;;;;;5111833;28;20214;-83
2022/10/15 05:54:39;;;;;;;17.17;13.33;;;14.70;99.90;;;;;;5096767;28;20672;-83
2022/10/15 05:57:06;;;;;;;16.47;11.67;;;14.70;99.90;;;;;;5095741;28;20211;-83
2022/10/15 05:59:34;;;;;;;13.73;11.27;;;14.60;99.90;;;;;;5095849;28;20223;-82
2022/10/15 06:02:01;;;;;;;11.93;10.53;;;14.60;99.90;;;;;;5109666;28;20206;-83
2022/10/15 06:04:28;;;;;;;12.23;10.73;;;14.60;99.90;;;;;;5116458;28;20250;-82
2022/10/15 06:06:55;;;;;;;12.03;9.70;;;14.60;99.90;;;;;;5115019;28;20619;-83
2022/10/15 06:09:22;;;;;;;11.63;9.80;;;14.60;99.90;;;;;;5116623;28;20232;-83
2022/10/15 06:11:49;;;;;;;11.60;9.67;;;14.50;99.90;;;;;;5116406;28;20190;-83
2022/10/15 06:14:15;;;;;;;14.17;10.70;;;14.40;99.90;;;;;;5116418;28;20202;-83
2022/10/15 06:16:44;;;;;;;11.93;9.33;;;14.50;99.90;;;;;;5116527;28;20190;-82
2022/10/15 06:19:11;;;;;;;13.82;12.43;;;14.40;99.90;;;;;;5115280;28;20424;-82
2022/10/15 06:21:38;;;;;;;12.63;10.50;;;14.50;99.90;;;;;;5116651;28;20217;-81
2022/10/15 06:24:05;;;;;;;14.47;10.10;;;14.60;99.90;;;;;;5115037;28;20190;-81
2022/10/15 06:26:32;;;;;;;10.53;8.90;;;14.70;99.90;;;;;;5116053;28;20201;-81
2022/10/15 06:28:59;;;;;;;11.60;8.87;;;14.80;99.90;;;;;;5116484;28;20192;-81
2022/10/15 06:31:26;;;;;;;10.07;8.93;;;14.70;99.90;;;;;;5116017;28;20224;-81
2022/10/15 06:33:54;;;;;;;14.50;9.27;;;14.70;99.90;;;;;;5115859;28;20209;-80
2022/10/15 06:36:23;;;;;;;12.13;9.20;;;14.70;99.90;;;;;;5115774;28;20203;-82
2022/10/15 06:38:50;;;;;;;12.43;9.13;;;14.70;99.90;;;;;;5112674;28;20194;-84
2022/10/15 06:41:19;;;;;;;12.60;8.57;;;14.80;99.90;;;;;;5116269;28;20201;-85
2022/10/15 06:43:49;;;;;;;11.07;9.40;;;14.90;99.90;;;;;;5116715;28;20553;-85
2022/10/15 06:46:16;;;;;;;11.13;8.67;;;14.90;99.90;;;;;;5116466;28;20202;-86
2022/10/15 06:48:42;;;;;;;12.07;9.00;;;15.00;99.90;;;;;;5116305;28;20214;-85
2022/10/15 06:51:13;;;;;;;11.87;9.13;;;14.90;99.90;;;;;;5116690;28;20237;-87
2022/10/15 06:53:42;;;;;;;11.80;9.40;;;15.00;99.90;;;;;;5116630;28;20663;-89
2022/10/15 06:56:09;;;;;;;12.53;9.03;;;15.00;99.90;;;;;;5117868;28;20205;-86
2022/10/15 06:58:36;;;;;;;11.50;10.00;;;14.90;99.90;;;;;;5117619;28;20231;-86
2022/10/15 07:01:05;;;;;;;10.73;9.03;;;15.00;99.90;;;;;;5115214;28;20203;-86
2022/10/15 07:03:33;;;;;;;10.07;8.60;;;15.00;99.90;;;;;;5115897;28;20209;-89
2022/10/15 07:06:03;;;;;;;12.70;9.30;;;14.90;99.90;;;;;;5114945;28;20204;-86
2022/10/15 07:08:31;;;;;;;10.60;8.70;;;14.80;99.90;;;;;;5113067;28;20264;-85
2022/10/15 07:11:01;;;;;;;11.20;9.07;;;14.90;99.90;;;;;;5115841;28;20231;-85
2022/10/15 07:13:29;;;;;;;13.43;10.20;;;15.00;99.90;;;;;;5115677;27;20208;-85
2022/10/15 07:15:57;;;;;;;12.13;9.53;;;15.10;99.90;;;;;;5116833;28;20195;-86
2022/10/15 07:18:24;;;;;;;11.57;9.67;;;15.10;99.90;;;;;;5115989;28;20207;-85
2022/10/15 07:20:50;;;;;;;12.83;9.57;;;15.00;99.90;;;;;;5116091;28;20654;-85
2022/10/15 07:23:18;;;;;;;13.47;9.67;;;15.00;99.90;;;;;;5115581;28;20212;-86
2022/10/15 07:25:46;;;;;;;12.90;9.67;;;15.10;99.90;;;;;;5116209;28;20205;-87
2022/10/15 07:28:13;;;;;;;14.13;9.87;;;15.10;99.90;;;;;;5115601;28;20214;-85
2022/10/15 07:30:40;;;;;;;13.73;9.80;;;15.10;99.90;;;;;;5115407;28;20230;-84
2022/10/15 07:33:07;;;;;;;13.57;10.07;;;15.00;99.90;;;;;;5115411;28;20191;-85
2022/10/15 07:35:34;;;;;;;16.10;11.80;;;15.00;99.90;;;;;;5115948;28;20202;-82
2022/10/15 07:38:03;;;;;;;16.10;10.07;;;15.00;99.90;;;;;;5115671;28;20202;-83
2022/10/15 07:40:30;;;;;;;13.90;10.07;;;15.10;99.90;;;;;;5116190;28;20545;-86
2022/10/15 07:42:59;;;;;;;13.20;9.40;;;15.10;99.90;;;;;;5116312;28;20191;-90
2022/10/15 07:45:27;;;;;;;11.50;9.27;;;15.20;99.90;;;;;;5116250;28;20190;-91
2022/10/15 07:47:54;;;;;;;12.10;9.30;;;15.20;99.90;;;;;;5115489;28;20202;-87
2022/10/15 07:50:21;;;;;;;13.80;8.90;;;15.10;99.90;;;;;;5116087;28;20230;-91
2022/10/15 07:52:48;;;;;;;12.07;8.67;;;15.10;99.90;;;;;;5115648;28;20208;-91
2022/10/15 07:55:15;;;;;;;10.90;8.87;;;15.10;99.90;;;;;;5115596;28;20191;-87
2022/10/15 07:57:42;;;;;;;11.40;8.67;;;15.20;99.90;;;;;;5115897;28;20573;-89
2022/10/15 08:00:12;;;;;;;12.80;8.87;;;15.20;99.90;;;;;;5123355;28;20232;-87
2022/10/15 08:02:38;;;;;;;11.40;8.00;;;15.30;99.90;;;;;;5117364;28;20230;-89
2022/10/15 08:05:06;;;;;;;10.53;8.60;;;15.30;99.90;;;;;;5115594;28;20210;-89
2022/10/15 08:07:33;;;;;;;10.87;7.93;;;15.30;99.90;;;;;;5115766;27;20191;-90
2022/10/15 08:09:59;;;;;;;10.43;7.67;;;15.30;99.90;;;;;;5116369;28;20267;-88
2022/10/15 08:12:27;;;;;;;10.67;6.67;;;15.30;99.90;;;;;;5116506;28;20191;-90
2022/10/15 08:14:53;;;;;;;9.53;7.60;;;15.30;99.90;;;;;;5116452;28;20192;-91
2022/10/15 08:17:25;;;;;;;9.23;7.10;;;15.30;99.90;;;;;;5116451;28;20436;-90
2022/10/15 08:19:52;;;;;;;7.03;6.20;;;15.30;99.90;;;;;;5116020;28;20215;-86
2022/10/15 08:22:19;;;;;;;7.03;6.10;;;15.30;99.90;;;;;;5117403;28;20204;-91
2022/10/15 08:24:47;;;;;;;6.27;5.43;;;15.40;99.90;;;;;;5118581;28;20201;-91
2022/10/15 08:27:15;;;;;;;6.33;5.73;;;15.40;99.90;;;;;;5116938;28;20203;-88
2022/10/15 08:29:42;;;;;;;5.67;4.93;;;15.40;99.90;;;;;;5135188;27;20205;-92
2022/10/15 08:32:08;;;;;;;5.13;4.63;;;15.50;99.90;;;;;;5136409;27;20543;-86
2022/10/15 08:34:37;;;;;;;5.23;4.70;;;15.50;99.90;;;;;;5135771;27;20676;-92
2022/10/15 08:37:04;;;;;;;4.70;4.30;;;15.50;99.90;;;;;;5136845;27;20207;-88
2022/10/15 08:39:31;;;;;;;4.50;4.07;;;15.40;99.90;;;;;;5136757;27;20190;-88
2022/10/15 08:42:02;;;;;;;4.03;3.73;;;15.40;99.90;;;;;;5136292;27;20191;-87
2022/10/15 08:44:33;;;;;;;6.63;3.83;;;15.40;99.90;;;;;;5136847;27;20238;-88
2022/10/15 08:47:07;;;;;;;3.77;3.47;;;15.50;99.90;;;;;;5136031;27;20192;-90
2022/10/15 08:49:44;;;;;;;4.03;3.73;;;15.60;99.90;;;;;;5136072;27;20211;-94
2022/10/15 08:52:20;;;;;;;3.97;3.50;;;15.60;99.90;;;;;;5136110;28;20228;-93
2022/10/15 08:54:47;;;;;;;4.13;2.90;;;15.60;99.90;;;;;;5137767;28;20197;-93
2022/10/15 08:57:24;;;;;;;5.83;4.17;;;15.60;99.90;;;;;;5145344;27;20203;-94
2022/10/15 08:59:57;;;;;;;2.60;2.43;;;15.70;99.90;;;;;;5137625;28;20229;-92
2022/10/15 09:02:29;;;;;;;4.17;2.73;;;15.80;99.90;;;;;;5117590;28;20562;-93
2022/10/15 09:05:03;;;;;;;3.37;3.07;;;15.80;99.90;;;;;;5114465;28;20205;-94
2022/10/15 09:07:36;;;;;;;2.70;2.53;;;15.90;99.90;;;;;;5114213;28;20594;-94
2022/10/15 09:10:15;;;;;;;3.00;2.67;;;15.90;99.90;;;;;;5115148;28;20559;-91
2022/10/15 09:12:50;;;;;;;6.00;2.80;;;15.90;99.90;;;;;;5115086;28;20625;-93
2022/10/15 09:15:19;;;;;;;4.32;2.90;;;16.00;99.90;;;;;;5114891;28;20451;-92
2022/10/15 09:17:48;;;;;;;2.30;2.20;;;16.00;99.90;;;;;;5122757;28;20201;-89
2022/10/15 09:20:20;;;;;;;2.10;2.00;;;16.10;99.90;;;;;;5117503;28;20204;-87
2022/10/15 09:22:50;;;;;;;3.70;2.53;;;16.20;99.90;;;;;;5111950;28;20207;-87
2022/10/15 09:25:20;;;;;;;2.90;2.70;;;16.30;99.90;;;;;;5113796;28;20197;-87
2022/10/15 09:27:48;;;;;;;4.43;2.90;;;16.30;99.90;;;;;;5113363;28;20189;-86
2022/10/15 09:30:28;;;;;;;2.83;2.60;;;16.30;99.90;;;;;;5113170;28;20204;-87
2022/10/15 09:33:01;;;;;;;2.73;2.57;;;16.30;99.90;;;;;;5113702;28;20201;-83
2022/10/15 09:35:36;;;;;;;3.10;2.90;;;16.40;99.90;;;;;;5113339;28;20205;-82
2022/10/15 09:38:16;;;;;;;3.37;3.07;;;16.50;99.90;;;;;;5113022;28;20196;-84
2022/10/15 09:40:55;;;;;;;3.40;3.10;;;16.40;99.90;;;;;;5113078;28;20196;-82
2022/10/15 09:43:29;;;;;;;2.90;2.70;;;16.50;99.90;;;;;;5113271;28;20189;-83
2022/10/15 09:45:56;;;;;;;4.22;3.83;;;16.50;99.90;;;;;;5112655;28;20429;-83
2022/10/15 09:48:25;;;;;;;4.47;4.07;;;16.50;99.90;;;;;;5112871;28;20225;-84
2022/10/15 09:50:58;;;;;;;3.47;3.27;;;16.60;99.90;;;;;;5112943;28;20238;-85
2022/10/15 09:53:40;;;;;;;3.77;3.57;;;16.60;99.90;;;;;;5113258;28;20208;-83
2022/10/15 09:56:13;;;;;;;3.33;3.13;;;16.70;99.90;;;;;;5112382;28;20197;-84
2022/10/15 09:58:49;;;;;;;4.00;3.60;;;16.70;99.90;;;;;;5114014;28;20247;-83
2022/10/15 10:01:20;;;;;;;5.10;3.30;;;16.80;99.90;;;;;;5116801;28;20198;-83
2022/10/15 10:03:52;;;;;;;3.70;3.40;;;16.80;99.90;;;;;;5116839;28;20214;-83
2022/10/15 10:06:22;;;;;;;3.83;3.40;;;16.90;99.90;;;;;;5116883;28;20207;-84
2022/10/15 10:08:52;;;;;;;3.70;3.50;;;16.90;99.90;;;;;;5116796;28;20206;-83
2022/10/15 10:11:20;;;;;;;3.30;3.10;;;16.90;99.90;;;;;;5116356;28;20233;-83
2022/10/15 10:13:53;;;;;;;3.20;2.90;;;16.90;99.90;;;;;;5116369;28;20193;-83
2022/10/15 10:16:20;;;;;;;2.90;2.60;;;17.00;99.90;;;;;;5115628;28;20202;-83
2022/10/15 10:19:10;;;;;;;2.80;2.60;;;17.00;99.90;;;;;;5115680;28;20199;-83
2022/10/15 10:21:41;;;;;;;3.57;2.43;;;17.10;99.90;;;;;;5114622;28;20213;-83
2022/10/15 10:24:27;;;;;;;2.70;2.50;;;17.30;99.90;;;;;;5116738;28;20279;-86
2022/10/15 10:26:56;;;;;;;2.93;2.70;;;17.30;99.90;;;;;;5116116;28;20645;-87
2022/10/15 10:29:25;;;;;;;3.50;3.20;;;17.40;99.90;;;;;;5115517;28;20198;-85
2022/10/15 10:31:52;;;;;;;3.37;3.17;;;17.50;99.90;;;;;;5115894;28;20694;-83
2022/10/15 10:34:27;;;;;;;4.07;3.77;;;17.50;99.90;;;;;;5115866;28;20207;-83
2022/10/15 10:36:56;;;;;;;4.13;3.73;;;17.60;99.90;;;;;;5116319;28;20210;-86
2022/10/15 10:39:26;;;;;;;3.93;3.63;;;17.60;99.90;;;;;;5116684;28;20204;-86
2022/10/15 10:41:55;;;;;;;3.97;3.60;;;17.60;99.90;;;;;;5116502;28;20208;-87
2022/10/15 10:44:27;;;;;;;5.20;4.45;;;17.60;99.90;;;;;;5116063;28;20424;-86
2022/10/15 10:47:13;;;;;;;4.73;4.43;;;17.50;99.90;;;;;;5115764;28;20671;-86
2022/10/15 10:49:42;;;;;;;4.30;4.00;;;17.50;99.90;;;;;;5116374;28;20204;-83
2022/10/15 10:52:22;;;;;;;4.50;4.30;;;17.50;99.90;;;;;;5115526;28;20234;-83
2022/10/15 10:54:57;;;;;;;4.60;4.20;;;17.60;99.90;;;;;;5115417;28;20646;-83
2022/10/15 10:57:34;;;;;;;4.23;4.03;;;17.70;99.90;;;;;;5115412;28;20211;-84
2022/10/15 11:00:04;;;;;;;4.13;3.83;;;17.60;99.90;;;;;;5115421;28;20243;-83
2022/10/15 11:02:32;;;;;;;4.23;3.97;;;17.80;99.90;;;;;;5115440;28;20204;-83
2022/10/15 11:04:59;;;;;;;3.67;3.47;;;17.80;99.90;;;;;;5115536;28;20231;-83
2022/10/15 11:07:35;;;;;;;3.83;3.53;;;17.80;99.90;;;;;;5115642;28;20211;-84
2022/10/15 11:10:10;;;;;;;2.87;2.67;;;17.80;99.90;;;;;;5115158;28;20230;-84
2022/10/15 11:12:49;;;;;;;3.33;3.10;;;17.90;99.90;;;;;;5115195;28;20299;-83
2022/10/15 11:15:36;;;;;;;2.17;1.97;;;18.10;99.90;;;;;;5115329;28;20207;-86
2022/10/15 11:18:23;;;;;;;1.70;1.60;;;18.20;99.90;;;;;;5115773;28;20214;-86
2022/10/15 11:21:04;;;;;;;1.57;1.47;;;18.30;99.90;;;;;;5115764;28;20192;-87
2022/10/15 11:23:57;;;;;;;0.97;0.87;;;18.40;99.90;;;;;;5115687;28;20196;-88
2022/10/15 11:26:45;;;;;;;0.67;0.67;;;18.40;99.90;;;;;;5115868;28;20210;-84
2022/10/15 11:29:20;;;;;;;1.23;1.13;;;18.30;99.90;;;;;;5115553;28;20200;-87
2022/10/15 11:31:56;;;;;;;1.43;0.67;;;18.40;99.90;;;;;;5115819;28;20238;-86
2022/10/15 11:34:33;;;;;;;0.60;0.60;;;18.40;99.90;;;;;;5115511;28;20192;-87
2022/10/15 11:37:15;;;;;;;0.57;0.50;;;18.50;99.90;;;;;;5115743;28;20194;-86
2022/10/15 11:40:04;;;;;;;2.10;0.60;;;18.50;99.90;;;;;;5114293;28;20428;-86
2022/10/15 11:42:38;;;;;;;0.87;0.70;;;18.60;99.90;;;;;;5115218;28;20210;-84
2022/10/15 11:45:38;;;;;;;0.60;0.60;;;18.60;99.90;;;;;;5114849;28;20636;-85
2022/10/15 11:48:10;;;;;;;1.23;1.13;;;18.50;99.90;;;;;;5070768;28;20255;-85
2022/10/15 11:50:41;;;;;;;1.40;1.00;;;18.50;99.90;;;;;;5114796;28;20222;-87
2022/10/15 11:53:42;;;;;;;0.87;0.87;;;18.50;99.90;;;;;;5114873;28;20695;-86
2022/10/15 11:56:16;;;;;;;0.60;0.60;;;18.50;99.90;;;;;;5101241;28;20206;-87
2022/10/15 11:58:48;;;;;;;0.63;0.57;;;18.30;99.90;;;;;;5114912;28;20554;-84
2022/10/15 12:01:23;;;;;;;0.70;0.67;;;18.00;99.90;;;;;;5115412;28;20211;-90
2022/10/15 12:03:55;;;;;;;0.40;0.40;;;18.00;99.90;;;;;;5100977;28;20557;-87
2022/10/15 12:06:32;;;;;;;1.00;0.63;;;18.00;99.90;;;;;;5114992;28;20218;-88
2022/10/15 12:09:03;;;;;;;0.87;0.40;;;17.90;99.90;;;;;;5100972;28;20211;-84
2022/10/15 12:11:41;;;;;;;1.23;0.80;;;17.80;99.90;;;;;;5115112;28;20237;-83
2022/10/15 12:14:17;;;;;;;3.47;0.83;;;17.80;99.90;;;;;;5115271;28;20222;-86
2022/10/15 12:16:59;;;;;;;3.10;0.50;;;17.70;99.90;;;;;;5117308;28;20206;-87
2022/10/15 12:19:36;;;;;;;0.40;0.40;;;17.80;99.90;;;;;;5115638;28;20206;-89
2022/10/15 12:22:33;;;;;;;6.13;0.97;;;17.70;99.90;;;;;;5114588;28;20214;-87
2022/10/15 12:25:04;;;;;;;0.90;0.70;;;17.80;99.90;;;;;;5114853;28;20203;-88
2022/10/15 12:27:38;;;;;;;0.77;0.60;;;17.80;99.90;;;;;;5115084;28;20550;-90
2022/10/15 12:30:25;;;;;;;1.97;0.73;;;17.90;99.90;;;;;;5103530;28;20208;-88
2022/10/15 12:32:54;;;;;;;0.70;0.67;;;17.80;99.90;;;;;;5099869;28;20291;-87
2022/10/15 12:35:39;;;;;;;1.83;0.60;;;17.90;99.90;;;;;;5117191;27;20210;-86
2022/10/15 12:38:23;;;;;;;1.10;0.67;;;17.90;99.90;;;;;;5113845;28;20202;-88
2022/10/15 12:40:58;;;;;;;1.80;0.83;;;17.90;99.90;;;;;;5114163;28;20208;-86
2022/10/15 12:43:27;;;;;;;3.40;1.00;;;18.00;99.90;;;;;;5114627;28;20214;-85
2022/10/15 12:46:02;;;;;;;1.13;0.70;;;18.00;99.90;;;;;;5114722;28;20594;-86
2022/10/15 12:48:38;;;;;;;2.40;0.93;;;18.10;99.90;;;;;;5114424;28;20222;-85
2022/10/15 12:51:39;;;;;;;3.27;0.77;;;18.10;99.90;;;;;;5114499;28;20604;-85
2022/10/15 12:54:37;;;;;;;3.83;0.70;;;18.10;99.90;;;;;;5113998;28;20204;-84